weather.gov     
National Weather Service

Terminal Aerodrome Forecast
NWS Homepage
This page is being discontinued on March 12, 2014.
The same data is available at this site. Please update your bookmarks.
Thank you, and we apologize for the inconvenience.
Please send an email to SR-SRH.Webmaster@noaa.gov with any concerns.


Current Version
Previous Version:    01  02  03  04  05  06  07  08  09  10  11  12  13  14  15  16  17  18  19  20  21  22  23  24  25  26  27  28  29  30  
   31  32  33  34  35  36  37  38  39  40  41  
[Printable]
292
FTUS43 KDLH 281100
TAFHYR
TAF
KHYR 281121Z 2812/2912 VRB02KT 6SM BR SCT220
     FM281500 16004KT P6SM SCT040
      TEMPO 2818/2821 BKN045
     FM290100 13004KT P6SM VCSH SCT020 BKN050 PROB30 2901/2904 5SM
      -TSRA BR BKN020CB
     FM290400 VRB03KT 3SM -SHRA BR OVC010
      TEMPO 2904/2908 1SM TSRA BR OVC006CB=


U.S. Dept. of Commerce
NOAA National Weather Service
1325 East West Highway
Silver Spring, MD 20910
E-mail: w-nws.webmaster@noaa.gov
Page last modified: May 16, 2007
NATIONAL WEATHER SERVICE: for Safety, for Work, for Fun - FOR LIFE